sensor_id;sensor_type;location;lat;lon;timestamp;P1;durP1;ratioP1;P2;durP2;ratioP2
46110;SDS011;31849;55.992;37.252;2022-08-27T00:04:54;25.65;;;15.25;;
46110;SDS011;31849;55.992;37.252;2022-08-27T00:09:58;22.57;;;16.10;;
46110;SDS011;31849;55.992;37.252;2022-08-27T00:15:05;25.92;;;15.63;;
46110;SDS011;31849;55.992;37.252;2022-08-27T00:20:11;23.77;;;16.33;;
46110;SDS011;31849;55.992;37.252;2022-08-27T00:25:17;23.98;;;15.38;;
46110;SDS011;31849;55.992;37.252;2022-08-27T00:30:23;26.60;;;15.98;;
46110;SDS011;31849;55.992;37.252;2022-08-27T00:35:27;23.90;;;15.85;;
46110;SDS011;31849;55.992;37.252;2022-08-27T00:40:31;25.55;;;15.43;;
46110;SDS011;31849;55.992;37.252;2022-08-27T00:45:37;19.83;;;14.93;;
46110;SDS011;31849;55.992;37.252;2022-08-27T00:50:45;21.27;;;16.15;;
46110;SDS011;31849;55.992;37.252;2022-08-27T00:55:52;20.02;;;15.82;;
46110;SDS011;31849;55.992;37.252;2022-08-27T01:01:00;22.50;;;15.90;;
46110;SDS011;31849;55.992;37.252;2022-08-27T01:06:05;27.83;;;16.38;;
46110;SDS011;31849;55.992;37.252;2022-08-27T01:11:17;22.08;;;15.35;;
46110;SDS011;31849;55.992;37.252;2022-08-27T01:16:23;23.20;;;16.60;;
46110;SDS011;31849;55.992;37.252;2022-08-27T01:21:33;27.23;;;16.67;;
46110;SDS011;31849;55.992;37.252;2022-08-27T01:26:44;21.10;;;16.10;;
46110;SDS011;31849;55.992;37.252;2022-08-27T01:31:48;25.52;;;17.45;;
46110;SDS011;31849;55.992;37.252;2022-08-27T01:36:52;25.77;;;17.60;;
46110;SDS011;31849;55.992;37.252;2022-08-27T01:42:03;21.50;;;15.88;;
46110;SDS011;31849;55.992;37.252;2022-08-27T01:47:09;21.75;;;16.65;;
46110;SDS011;31849;55.992;37.252;2022-08-27T01:52:13;32.73;;;17.70;;
46110;SDS011;31849;55.992;37.252;2022-08-27T01:57:21;27.90;;;17.33;;
46110;SDS011;31849;55.992;37.252;2022-08-27T02:02:27;22.38;;;16.92;;
46110;SDS011;31849;55.992;37.252;2022-08-27T02:07:30;23.42;;;16.73;;
46110;SDS011;31849;55.992;37.252;2022-08-27T02:12:35;26.63;;;17.70;;
46110;SDS011;31849;55.992;37.252;2022-08-27T02:17:39;25.30;;;17.58;;
46110;SDS011;31849;55.992;37.252;2022-08-27T02:22:43;28.65;;;17.48;;
46110;SDS011;31849;55.992;37.252;2022-08-27T02:27:50;24.10;;;16.35;;
46110;SDS011;31849;55.992;37.252;2022-08-27T02:32:53;27.77;;;17.05;;
46110;SDS011;31849;55.992;37.252;2022-08-27T02:37:57;28.63;;;16.95;;
46110;SDS011;31849;55.992;37.252;2022-08-27T02:43:02;24.92;;;17.73;;
46110;SDS011;31849;55.992;37.252;2022-08-27T02:48:06;27.40;;;17.73;;
46110;SDS011;31849;55.992;37.252;2022-08-27T02:53:10;27.10;;;17.60;;
46110;SDS011;31849;55.992;37.252;2022-08-27T02:58:16;23.95;;;17.27;;
46110;SDS011;31849;55.992;37.252;2022-08-27T03:03:19;27.17;;;17.42;;
46110;SDS011;31849;55.992;37.252;2022-08-27T03:08:23;24.15;;;18.35;;
46110;SDS011;31849;55.992;37.252;2022-08-27T03:13:33;25.73;;;17.95;;
46110;SDS011;31849;55.992;37.252;2022-08-27T03:18:38;26.02;;;18.23;;
46110;SDS011;31849;55.992;37.252;2022-08-27T03:23:42;23.70;;;17.38;;
46110;SDS011;31849;55.992;37.252;2022-08-27T03:28:47;27.13;;;17.53;;
46110;SDS011;31849;55.992;37.252;2022-08-27T03:33:52;26.65;;;18.48;;
46110;SDS011;31849;55.992;37.252;2022-08-27T03:38:57;23.85;;;17.10;;
46110;SDS011;31849;55.992;37.252;2022-08-27T03:44:03;30.38;;;18.90;;
46110;SDS011;31849;55.992;37.252;2022-08-27T03:49:06;23.63;;;17.40;;
46110;SDS011;31849;55.992;37.252;2022-08-27T03:54:14;29.80;;;20.92;;
46110;SDS011;31849;55.992;37.252;2022-08-27T03:59:18;26.07;;;17.77;;
46110;SDS011;31849;55.992;37.252;2022-08-27T04:04:22;26.73;;;20.08;;
46110;SDS011;31849;55.992;37.252;2022-08-27T04:09:25;25.73;;;21.23;;
46110;SDS011;31849;55.992;37.252;2022-08-27T04:14:32;26.15;;;21.00;;
46110;SDS011;31849;55.992;37.252;2022-08-27T04:19:36;32.33;;;21.65;;
46110;SDS011;31849;55.992;37.252;2022-08-27T04:24:39;42.33;;;25.95;;
46110;SDS011;31849;55.992;37.252;2022-08-27T04:29:45;47.75;;;26.67;;
46110;SDS011;31849;55.992;37.252;2022-08-27T04:34:52;35.28;;;24.10;;
46110;SDS011;31849;55.992;37.252;2022-08-27T04:39:56;30.58;;;22.42;;
46110;SDS011;31849;55.992;37.252;2022-08-27T04:45:01;40.72;;;31.42;;
46110;SDS011;31849;55.992;37.252;2022-08-27T04:50:06;52.63;;;40.05;;
46110;SDS011;31849;55.992;37.252;2022-08-27T04:55:10;48.17;;;37.88;;
46110;SDS011;31849;55.992;37.252;2022-08-27T05:00:15;61.03;;;45.97;;
46110;SDS011;31849;55.992;37.252;2022-08-27T05:05:19;66.55;;;50.80;;
46110;SDS011;31849;55.992;37.252;2022-08-27T05:10:24;66.90;;;51.58;;
46110;SDS011;31849;55.992;37.252;2022-08-27T05:15:29;67.43;;;53.85;;
46110;SDS011;31849;55.992;37.252;2022-08-27T05:20:34;65.55;;;52.05;;
46110;SDS011;31849;55.992;37.252;2022-08-27T05:25:45;60.65;;;49.45;;
46110;SDS011;31849;55.992;37.252;2022-08-27T05:30:53;62.97;;;49.08;;
46110;SDS011;31849;55.992;37.252;2022-08-27T05:35:58;65.50;;;51.72;;
46110;SDS011;31849;55.992;37.252;2022-08-27T05:41:04;63.67;;;50.92;;
46110;SDS011;31849;55.992;37.252;2022-08-27T05:46:12;58.65;;;47.53;;
46110;SDS011;31849;55.992;37.252;2022-08-27T05:51:18;61.55;;;47.95;;
46110;SDS011;31849;55.992;37.252;2022-08-27T05:56:27;50.72;;;44.80;;
46110;SDS011;31849;55.992;37.252;2022-08-27T06:01:34;59.88;;;44.00;;
46110;SDS011;31849;55.992;37.252;2022-08-27T06:06:40;53.22;;;42.85;;
46110;SDS011;31849;55.992;37.252;2022-08-27T06:11:44;61.53;;;40.05;;
46110;SDS011;31849;55.992;37.252;2022-08-27T06:16:50;53.92;;;38.72;;
46110;SDS011;31849;55.992;37.252;2022-08-27T06:21:54;44.15;;;34.50;;
46110;SDS011;31849;55.992;37.252;2022-08-27T06:27:02;42.47;;;33.28;;
46110;SDS011;31849;55.992;37.252;2022-08-27T06:32:07;39.75;;;29.77;;
46110;SDS011;31849;55.992;37.252;2022-08-27T06:37:11;42.38;;;33.25;;
46110;SDS011;31849;55.992;37.252;2022-08-27T06:42:15;38.20;;;32.22;;
46110;SDS011;31849;55.992;37.252;2022-08-27T06:47:20;34.53;;;29.70;;
46110;SDS011;31849;55.992;37.252;2022-08-27T06:52:24;34.13;;;30.15;;
46110;SDS011;31849;55.992;37.252;2022-08-27T06:57:28;34.53;;;28.15;;
46110;SDS011;31849;55.992;37.252;2022-08-27T07:02:33;31.25;;;26.60;;
46110;SDS011;31849;55.992;37.252;2022-08-27T07:07:37;32.22;;;27.90;;
46110;SDS011;31849;55.992;37.252;2022-08-27T07:12:49;36.00;;;26.25;;
46110;SDS011;31849;55.992;37.252;2022-08-27T07:17:54;30.50;;;22.80;;
46110;SDS011;31849;55.992;37.252;2022-08-27T07:22:58;24.33;;;20.00;;
46110;SDS011;31849;55.992;37.252;2022-08-27T07:28:02;27.98;;;20.92;;
46110;SDS011;31849;55.992;37.252;2022-08-27T07:33:07;31.80;;;27.80;;
46110;SDS011;31849;55.992;37.252;2022-08-27T07:38:10;25.30;;;22.55;;
46110;SDS011;31849;55.992;37.252;2022-08-27T07:43:15;29.05;;;24.90;;
46110;SDS011;31849;55.992;37.252;2022-08-27T07:48:37;30.60;;;27.30;;
46110;SDS011;31849;55.992;37.252;2022-08-27T07:53:43;36.03;;;28.90;;
46110;SDS011;31849;55.992;37.252;2022-08-27T07:58:46;36.13;;;31.67;;
46110;SDS011;31849;55.992;37.252;2022-08-27T08:03:52;36.85;;;31.70;;
46110;SDS011;31849;55.992;37.252;2022-08-27T08:08:57;39.10;;;33.55;;
46110;SDS011;31849;55.992;37.252;2022-08-27T08:14:02;36.55;;;30.05;;
46110;SDS011;31849;55.992;37.252;2022-08-27T08:19:07;38.45;;;31.77;;
46110;SDS011;31849;55.992;37.252;2022-08-27T08:24:11;38.08;;;32.50;;
46110;SDS011;31849;55.992;37.252;2022-08-27T08:29:15;33.55;;;27.63;;
46110;SDS011;31849;55.992;37.252;2022-08-27T08:34:20;32.38;;;27.27;;
46110;SDS011;31849;55.992;37.252;2022-08-27T08:39:24;34.95;;;28.10;;
46110;SDS011;31849;55.992;37.252;2022-08-27T08:44:30;34.80;;;25.27;;
46110;SDS011;31849;55.992;37.252;2022-08-27T08:49:40;37.08;;;25.50;;
46110;SDS011;31849;55.992;37.252;2022-08-27T08:54:48;36.00;;;25.20;;
46110;SDS011;31849;55.992;37.252;2022-08-27T08:59:55;29.05;;;20.70;;
46110;SDS011;31849;55.992;37.252;2022-08-27T09:05:07;27.33;;;16.67;;
46110;SDS011;31849;55.992;37.252;2022-08-27T09:10:13;20.73;;;15.50;;
46110;SDS011;31849;55.992;37.252;2022-08-27T09:15:25;24.98;;;15.88;;
46110;SDS011;31849;55.992;37.252;2022-08-27T09:20:33;24.80;;;16.10;;
46110;SDS011;31849;55.992;37.252;2022-08-27T09:25:39;21.75;;;14.25;;
46110;SDS011;31849;55.992;37.252;2022-08-27T09:30:44;25.33;;;15.55;;
46110;SDS011;31849;55.992;37.252;2022-08-27T09:35:49;21.67;;;15.75;;
46110;SDS011;31849;55.992;37.252;2022-08-27T09:40:55;25.10;;;16.75;;
46110;SDS011;31849;55.992;37.252;2022-08-27T09:46:04;15.68;;;12.68;;
46110;SDS011;31849;55.992;37.252;2022-08-27T09:51:11;18.90;;;12.10;;
46110;SDS011;31849;55.992;37.252;2022-08-27T09:56:25;20.27;;;11.10;;
46110;SDS011;31849;55.992;37.252;2022-08-27T10:01:32;23.08;;;12.68;;
46110;SDS011;31849;55.992;37.252;2022-08-27T10:06:44;14.75;;;12.68;;
46110;SDS011;31849;55.992;37.252;2022-08-27T10:11:52;18.25;;;14.25;;
46110;SDS011;31849;55.992;37.252;2022-08-27T10:17:08;21.02;;;15.57;;
46110;SDS011;31849;55.992;37.252;2022-08-27T10:22:22;21.60;;;13.85;;
46110;SDS011;31849;55.992;37.252;2022-08-27T10:27:37;17.45;;;14.60;;
46110;SDS011;31849;55.992;37.252;2022-08-27T10:32:54;21.25;;;15.18;;
46110;SDS011;31849;55.992;37.252;2022-08-27T10:38:08;26.13;;;16.70;;
46110;SDS011;31849;55.992;37.252;2022-08-27T10:43:23;21.23;;;15.80;;
46110;SDS011;31849;55.992;37.252;2022-08-27T10:48:40;17.58;;;15.68;;
46110;SDS011;31849;55.992;37.252;2022-08-27T10:53:52;19.15;;;14.73;;
46110;SDS011;31849;55.992;37.252;2022-08-27T10:59:05;20.20;;;15.05;;
46110;SDS011;31849;55.992;37.252;2022-08-27T11:04:20;20.48;;;15.50;;
46110;SDS011;31849;55.992;37.252;2022-08-27T11:09:32;18.83;;;14.77;;
46110;SDS011;31849;55.992;37.252;2022-08-27T11:14:41;22.80;;;15.35;;
46110;SDS011;31849;55.992;37.252;2022-08-27T11:19:52;19.42;;;14.65;;
46110;SDS011;31849;55.992;37.252;2022-08-27T11:25:02;28.23;;;16.25;;
46110;SDS011;31849;55.992;37.252;2022-08-27T11:30:15;23.15;;;16.05;;
46110;SDS011;31849;55.992;37.252;2022-08-27T11:35:27;20.48;;;15.68;;
46110;SDS011;31849;55.992;37.252;2022-08-27T11:40:50;17.00;;;13.55;;
46110;SDS011;31849;55.992;37.252;2022-08-27T11:46:08;15.68;;;12.90;;
46110;SDS011;31849;55.992;37.252;2022-08-27T11:51:12;19.92;;;14.05;;
46110;SDS011;31849;55.992;37.252;2022-08-27T11:56:36;16.73;;;12.80;;
46110;SDS011;31849;55.992;37.252;2022-08-27T12:01:42;16.92;;;11.95;;
46110;SDS011;31849;55.992;37.252;2022-08-27T12:06:49;14.68;;;11.70;;
46110;SDS011;31849;55.992;37.252;2022-08-27T12:12:00;14.52;;;11.60;;
46110;SDS011;31849;55.992;37.252;2022-08-27T12:17:11;16.80;;;12.50;;
46110;SDS011;31849;55.992;37.252;2022-08-27T12:28:21;16.92;;;14.20;;
46110;SDS011;31849;55.992;37.252;2022-08-27T12:33:29;16.10;;;14.40;;
46110;SDS011;31849;55.992;37.252;2022-08-27T12:38:39;22.17;;;15.18;;
46110;SDS011;31849;55.992;37.252;2022-08-27T12:44:02;16.40;;;14.00;;
46110;SDS011;31849;55.992;37.252;2022-08-27T12:49:07;18.40;;;14.18;;
46110;SDS011;31849;55.992;37.252;2022-08-27T12:54:34;21.25;;;13.45;;
46110;SDS011;31849;55.992;37.252;2022-08-27T12:59:50;19.98;;;13.52;;
46110;SDS011;31849;55.992;37.252;2022-08-27T13:05:05;18.25;;;12.90;;
46110;SDS011;31849;55.992;37.252;2022-08-27T13:10:12;16.48;;;13.60;;
46110;SDS011;31849;55.992;37.252;2022-08-27T13:15:19;17.33;;;13.68;;
46110;SDS011;31849;55.992;37.252;2022-08-27T13:20:23;18.95;;;14.70;;
46110;SDS011;31849;55.992;37.252;2022-08-27T13:25:29;19.35;;;15.73;;
46110;SDS011;31849;55.992;37.252;2022-08-27T13:30:36;21.30;;;16.60;;
46110;SDS011;31849;55.992;37.252;2022-08-27T13:35:42;19.20;;;15.95;;
46110;SDS011;31849;55.992;37.252;2022-08-27T13:40:50;20.35;;;16.30;;
46110;SDS011;31849;55.992;37.252;2022-08-27T13:45:59;21.35;;;16.25;;
46110;SDS011;31849;55.992;37.252;2022-08-27T13:51:07;19.38;;;16.90;;
46110;SDS011;31849;55.992;37.252;2022-08-27T13:56:21;20.92;;;16.77;;
46110;SDS011;31849;55.992;37.252;2022-08-27T14:01:28;24.42;;;16.35;;
46110;SDS011;31849;55.992;37.252;2022-08-27T14:06:37;22.58;;;17.60;;
46110;SDS011;31849;55.992;37.252;2022-08-27T14:11:43;23.92;;;15.50;;
46110;SDS011;31849;55.992;37.252;2022-08-27T14:16:56;19.90;;;15.70;;
46110;SDS011;31849;55.992;37.252;2022-08-27T14:22:01;21.30;;;16.52;;
46110;SDS011;31849;55.992;37.252;2022-08-27T14:27:07;21.42;;;17.05;;
46110;SDS011;31849;55.992;37.252;2022-08-27T14:32:14;22.77;;;16.30;;
46110;SDS011;31849;55.992;37.252;2022-08-27T14:37:19;21.17;;;17.25;;
46110;SDS011;31849;55.992;37.252;2022-08-27T14:42:23;18.85;;;16.00;;
46110;SDS011;31849;55.992;37.252;2022-08-27T14:47:48;18.20;;;16.30;;
46110;SDS011;31849;55.992;37.252;2022-08-27T14:52:53;24.00;;;16.30;;
46110;SDS011;31849;55.992;37.252;2022-08-27T14:57:56;26.58;;;17.20;;
46110;SDS011;31849;55.992;37.252;2022-08-27T15:03:01;21.55;;;16.23;;
46110;SDS011;31849;55.992;37.252;2022-08-27T15:08:05;18.20;;;16.30;;
46110;SDS011;31849;55.992;37.252;2022-08-27T15:13:14;21.92;;;17.08;;
46110;SDS011;31849;55.992;37.252;2022-08-27T15:18:20;24.13;;;17.38;;
46110;SDS011;31849;55.992;37.252;2022-08-27T15:23:23;22.02;;;17.30;;
46110;SDS011;31849;55.992;37.252;2022-08-27T15:28:27;22.73;;;16.92;;
46110;SDS011;31849;55.992;37.252;2022-08-27T15:33:32;22.10;;;17.17;;
46110;SDS011;31849;55.992;37.252;2022-08-27T15:38:36;23.38;;;17.05;;
46110;SDS011;31849;55.992;37.252;2022-08-27T15:43:39;24.13;;;17.58;;
46110;SDS011;31849;55.992;37.252;2022-08-27T15:48:44;28.90;;;18.73;;
46110;SDS011;31849;55.992;37.252;2022-08-27T15:53:48;24.90;;;18.33;;
46110;SDS011;31849;55.992;37.252;2022-08-27T15:58:52;24.75;;;19.05;;
46110;SDS011;31849;55.992;37.252;2022-08-27T16:03:57;32.28;;;19.17;;
46110;SDS011;31849;55.992;37.252;2022-08-27T16:09:02;27.58;;;18.33;;
46110;SDS011;31849;55.992;37.252;2022-08-27T16:14:07;24.92;;;18.02;;
46110;SDS011;31849;55.992;37.252;2022-08-27T16:19:12;25.52;;;18.92;;
46110;SDS011;31849;55.992;37.252;2022-08-27T16:24:17;25.73;;;19.80;;
46110;SDS011;31849;55.992;37.252;2022-08-27T16:29:22;27.15;;;19.55;;
46110;SDS011;31849;55.992;37.252;2022-08-27T16:34:27;26.90;;;19.95;;
46110;SDS011;31849;55.992;37.252;2022-08-27T16:39:31;28.85;;;21.52;;
46110;SDS011;31849;55.992;37.252;2022-08-27T16:44:41;29.95;;;22.38;;
46110;SDS011;31849;55.992;37.252;2022-08-27T16:49:46;25.95;;;21.90;;
46110;SDS011;31849;55.992;37.252;2022-08-27T16:55:07;32.97;;;23.17;;
46110;SDS011;31849;55.992;37.252;2022-08-27T17:00:12;30.00;;;22.10;;
46110;SDS011;31849;55.992;37.252;2022-08-27T17:05:17;29.77;;;22.85;;
46110;SDS011;31849;55.992;37.252;2022-08-27T17:10:37;29.25;;;22.50;;
46110;SDS011;31849;55.992;37.252;2022-08-27T17:15:44;29.13;;;23.55;;
46110;SDS011;31849;55.992;37.252;2022-08-27T17:20:55;26.95;;;22.20;;
46110;SDS011;31849;55.992;37.252;2022-08-27T17:26:01;38.42;;;23.58;;
46110;SDS011;31849;55.992;37.252;2022-08-27T17:31:07;34.17;;;22.40;;
46110;SDS011;31849;55.992;37.252;2022-08-27T17:36:13;30.15;;;22.02;;
46110;SDS011;31849;55.992;37.252;2022-08-27T17:41:19;27.85;;;20.25;;
46110;SDS011;31849;55.992;37.252;2022-08-27T17:46:31;27.45;;;21.38;;
46110;SDS011;31849;55.992;37.252;2022-08-27T17:56:39;25.65;;;20.45;;
46110;SDS011;31849;55.992;37.252;2022-08-27T18:01:44;28.45;;;21.33;;
46110;SDS011;31849;55.992;37.252;2022-08-27T18:06:50;29.70;;;22.67;;
46110;SDS011;31849;55.992;37.252;2022-08-27T18:11:54;29.15;;;21.88;;
46110;SDS011;31849;55.992;37.252;2022-08-27T18:16:57;30.48;;;23.20;;
46110;SDS011;31849;55.992;37.252;2022-08-27T18:22:03;34.88;;;22.15;;
46110;SDS011;31849;55.992;37.252;2022-08-27T18:27:07;27.95;;;22.00;;
46110;SDS011;31849;55.992;37.252;2022-08-27T18:32:11;36.10;;;23.42;;
46110;SDS011;31849;55.992;37.252;2022-08-27T18:37:16;32.30;;;23.55;;
46110;SDS011;31849;55.992;37.252;2022-08-27T18:42:20;32.40;;;23.50;;
46110;SDS011;31849;55.992;37.252;2022-08-27T18:47:24;32.03;;;23.48;;
46110;SDS011;31849;55.992;37.252;2022-08-27T18:52:29;37.47;;;23.85;;
46110;SDS011;31849;55.992;37.252;2022-08-27T18:57:33;39.97;;;25.08;;
46110;SDS011;31849;55.992;37.252;2022-08-27T19:02:38;37.30;;;25.20;;
46110;SDS011;31849;55.992;37.252;2022-08-27T19:07:44;38.22;;;26.05;;
46110;SDS011;31849;55.992;37.252;2022-08-27T19:12:48;36.88;;;24.42;;
46110;SDS011;31849;55.992;37.252;2022-08-27T19:17:53;36.28;;;25.63;;
46110;SDS011;31849;55.992;37.252;2022-08-27T19:23:01;32.45;;;23.17;;
46110;SDS011;31849;55.992;37.252;2022-08-27T19:28:04;31.08;;;23.17;;
46110;SDS011;31849;55.992;37.252;2022-08-27T19:33:09;37.92;;;24.27;;
46110;SDS011;31849;55.992;37.252;2022-08-27T19:38:14;33.30;;;24.70;;
46110;SDS011;31849;55.992;37.252;2022-08-27T19:43:19;31.90;;;25.02;;
46110;SDS011;31849;55.992;37.252;2022-08-27T19:48:22;28.40;;;23.27;;
46110;SDS011;31849;55.992;37.252;2022-08-27T19:53:28;29.73;;;23.80;;
46110;SDS011;31849;55.992;37.252;2022-08-27T19:58:32;32.67;;;25.58;;
46110;SDS011;31849;55.992;37.252;2022-08-27T20:03:35;31.93;;;25.30;;
46110;SDS011;31849;55.992;37.252;2022-08-27T20:08:41;34.17;;;25.55;;
46110;SDS011;31849;55.992;37.252;2022-08-27T20:13:48;34.47;;;26.98;;
46110;SDS011;31849;55.992;37.252;2022-08-27T20:18:51;36.55;;;25.60;;
46110;SDS011;31849;55.992;37.252;2022-08-27T20:24:02;33.75;;;27.27;;
46110;SDS011;31849;55.992;37.252;2022-08-27T20:29:06;32.78;;;25.90;;
46110;SDS011;31849;55.992;37.252;2022-08-27T20:34:15;35.28;;;25.25;;
46110;SDS011;31849;55.992;37.252;2022-08-27T20:39:20;32.13;;;25.75;;
46110;SDS011;31849;55.992;37.252;2022-08-27T20:44:26;38.42;;;27.75;;
46110;SDS011;31849;55.992;37.252;2022-08-27T20:49:29;38.53;;;27.02;;
46110;SDS011;31849;55.992;37.252;2022-08-27T20:54:37;40.88;;;27.73;;
46110;SDS011;31849;55.992;37.252;2022-08-27T20:59:40;36.92;;;27.50;;
46110;SDS011;31849;55.992;37.252;2022-08-27T21:05:05;35.70;;;28.25;;
46110;SDS011;31849;55.992;37.252;2022-08-27T21:10:13;36.92;;;27.95;;
46110;SDS011;31849;55.992;37.252;2022-08-27T21:15:17;41.78;;;29.00;;
46110;SDS011;31849;55.992;37.252;2022-08-27T21:20:21;35.75;;;28.30;;
46110;SDS011;31849;55.992;37.252;2022-08-27T21:25:26;39.67;;;29.20;;
46110;SDS011;31849;55.992;37.252;2022-08-27T21:30:30;40.75;;;28.83;;
46110;SDS011;31849;55.992;37.252;2022-08-27T21:35:34;39.40;;;29.70;;
46110;SDS011;31849;55.992;37.252;2022-08-27T21:40:38;34.93;;;28.77;;
46110;SDS011;31849;55.992;37.252;2022-08-27T21:45:42;39.78;;;30.75;;
46110;SDS011;31849;55.992;37.252;2022-08-27T21:50:46;43.67;;;30.67;;
46110;SDS011;31849;55.992;37.252;2022-08-27T21:55:55;45.70;;;34.45;;
46110;SDS011;31849;55.992;37.252;2022-08-27T22:00:59;37.13;;;28.83;;
46110;SDS011;31849;55.992;37.252;2022-08-27T22:06:05;35.97;;;28.98;;
46110;SDS011;31849;55.992;37.252;2022-08-27T22:11:12;44.40;;;31.25;;
46110;SDS011;31849;55.992;37.252;2022-08-27T22:16:22;37.78;;;29.67;;
46110;SDS011;31849;55.992;37.252;2022-08-27T22:21:26;37.87;;;30.10;;
46110;SDS011;31849;55.992;37.252;2022-08-27T22:26:30;37.20;;;28.70;;
46110;SDS011;31849;55.992;37.252;2022-08-27T22:31:34;40.83;;;31.83;;
46110;SDS011;31849;55.992;37.252;2022-08-27T22:36:38;38.83;;;30.38;;
46110;SDS011;31849;55.992;37.252;2022-08-27T22:41:43;42.90;;;32.67;;
46110;SDS011;31849;55.992;37.252;2022-08-27T22:46:49;38.63;;;29.85;;
46110;SDS011;31849;55.992;37.252;2022-08-27T22:51:53;40.42;;;31.23;;
46110;SDS011;31849;55.992;37.252;2022-08-27T22:56:58;48.83;;;32.80;;
46110;SDS011;31849;55.992;37.252;2022-08-27T23:02:02;45.53;;;31.73;;
46110;SDS011;31849;55.992;37.252;2022-08-27T23:07:07;49.35;;;34.33;;
46110;SDS011;31849;55.992;37.252;2022-08-27T23:12:12;46.65;;;34.15;;
46110;SDS011;31849;55.992;37.252;2022-08-27T23:17:16;47.72;;;34.65;;
46110;SDS011;31849;55.992;37.252;2022-08-27T23:22:20;49.83;;;34.03;;
46110;SDS011;31849;55.992;37.252;2022-08-27T23:27:25;48.03;;;31.83;;
46110;SDS011;31849;55.992;37.252;2022-08-27T23:32:31;44.50;;;34.13;;
46110;SDS011;31849;55.992;37.252;2022-08-27T23:37:34;52.43;;;36.30;;
46110;SDS011;31849;55.992;37.252;2022-08-27T23:42:40;52.17;;;35.67;;
46110;SDS011;31849;55.992;37.252;2022-08-27T23:47:45;51.40;;;37.13;;
46110;SDS011;31849;55.992;37.252;2022-08-27T23:52:48;49.60;;;36.13;;
46110;SDS011;31849;55.992;37.252;2022-08-27T23:57:55;52.53;;;37.65;;
